sensor_id;sensor_type;location;lat;lon;timestamp;pressure;altitude;pressure_sealevel;temperature;humidity
6136;BME280;24008;42.664;23.372;2023-04-12T00:02:18;93841.78;;;8.39;78.58
6136;BME280;24008;42.664;23.372;2023-04-12T00:04:45;93801.50;;;8.17;78.33
6136;BME280;24008;42.664;23.372;2023-04-12T00:07:22;93808.22;;;8.18;78.41
6136;BME280;24008;42.664;23.372;2023-04-12T00:09:49;93837.63;;;8.38;78.05
6136;BME280;24008;42.664;23.372;2023-04-12T00:12:16;93782.94;;;7.99;78.29
6136;BME280;24008;42.664;23.372;2023-04-12T00:14:44;93827.59;;;8.37;78.64
6136;BME280;24008;42.664;23.372;2023-04-12T00:17:10;93810.75;;;8.18;78.43
6136;BME280;24008;42.664;23.372;2023-04-12T00:19:37;93827.59;;;8.37;78.07
6136;BME280;24008;42.664;23.372;2023-04-12T00:22:06;93763.84;;;7.94;77.73
6136;BME280;24008;42.664;23.372;2023-04-12T00:24:36;93838.59;;;8.37;78.07
6136;BME280;24008;42.664;23.372;2023-04-12T00:27:03;93831.75;;;8.38;78.08
6136;BME280;24008;42.664;23.372;2023-04-12T00:29:31;93797.06;;;8.19;78.00
6136;BME280;24008;42.664;23.372;2023-04-12T00:31:58;93821.41;;;8.39;78.61
6136;BME280;24008;42.664;23.372;2023-04-12T00:34:26;93814.72;;;8.38;78.19
6136;BME280;24008;42.664;23.372;2023-04-12T00:36:53;93819.16;;;8.36;78.47
6136;BME280;24008;42.664;23.372;2023-04-12T00:39:20;93815.81;;;8.36;78.45
6136;BME280;24008;42.664;23.372;2023-04-12T00:41:49;93825.19;;;8.35;78.45
6136;BME280;24008;42.664;23.372;2023-04-12T00:44:16;93814.38;;;8.33;78.58
6136;BME280;24008;42.664;23.372;2023-04-12T00:46:43;93815.81;;;8.36;78.12
6136;BME280;24008;42.664;23.372;2023-04-12T00:49:10;93816.63;;;8.36;78.75
6136;BME280;24008;42.664;23.372;2023-04-12T00:51:38;93752.84;;;7.94;78.49
6136;BME280;24008;42.664;23.372;2023-04-12T00:54:05;93691.00;;;7.50;78.43
6136;BME280;24008;42.664;23.372;2023-04-12T00:56:32;93743.91;;;7.90;78.41
6136;BME280;24008;42.664;23.372;2023-04-12T00:59:01;93809.44;;;8.32;78.41
6136;BME280;24008;42.664;23.372;2023-04-12T01:01:28;93762.28;;;8.02;78.17
6136;BME280;24008;42.664;23.372;2023-04-12T01:03:56;93811.44;;;8.28;78.04
6136;BME280;24008;42.664;23.372;2023-04-12T01:06:38;93751.03;;;7.86;78.52
6136;BME280;24008;42.664;23.372;2023-04-12T01:09:18;93812.41;;;8.27;78.86
6136;BME280;24008;42.664;23.372;2023-04-12T01:14:41;93802.50;;;8.24;78.43
6136;BME280;24008;42.664;23.372;2023-04-12T01:17:13;93807.59;;;8.24;78.42
6136;BME280;24008;42.664;23.372;2023-04-12T01:19:55;93765.63;;;8.02;79.01
6136;BME280;24008;42.664;23.372;2023-04-12T01:22:58;93791.72;;;8.04;79.18
6136;BME280;24008;42.664;23.372;2023-04-12T01:25:37;93806.00;;;8.23;79.17
6136;BME280;24008;42.664;23.372;2023-04-12T01:28:08;93766.13;;;8.06;78.68
6136;BME280;24008;42.664;23.372;2023-04-12T01:30:38;93794.72;;;8.25;79.09
6136;BME280;24008;42.664;23.372;2023-04-12T01:33:09;93727.28;;;7.78;78.66
6136;BME280;24008;42.664;23.372;2023-04-12T01:35:38;93734.16;;;7.85;78.59
6136;BME280;24008;42.664;23.372;2023-04-12T01:38:05;93804.41;;;8.22;78.58
6136;BME280;24008;42.664;23.372;2023-04-12T01:40:34;93667.38;;;7.32;78.69
6136;BME280;24008;42.664;23.372;2023-04-12T01:43:06;93796.94;;;8.20;78.74
6136;BME280;24008;42.664;23.372;2023-04-12T01:45:33;93719.31;;;7.73;79.01
6136;BME280;24008;42.664;23.372;2023-04-12T01:48:01;93759.09;;;8.00;78.39
6136;BME280;24008;42.664;23.372;2023-04-12T01:50:34;93804.09;;;8.25;78.72
6136;BME280;24008;42.664;23.372;2023-04-12T01:53:09;93789.13;;;8.22;79.05
6136;BME280;24008;42.664;23.372;2023-04-12T01:55:40;93791.84;;;8.20;78.91
6136;BME280;24008;42.664;23.372;2023-04-12T01:58:11;93797.22;;;8.17;78.91
6136;BME280;24008;42.664;23.372;2023-04-12T02:00:42;93766.53;;;7.93;78.64
6136;BME280;24008;42.664;23.372;2023-04-12T02:03:10;93786.53;;;8.14;79.15
6136;BME280;24008;42.664;23.372;2023-04-12T02:05:38;93757.28;;;7.92;79.49
6136;BME280;24008;42.664;23.372;2023-04-12T02:08:05;93779.50;;;8.08;79.47
6136;BME280;24008;42.664;23.372;2023-04-12T02:10:32;93789.84;;;8.06;79.96
6136;BME280;24008;42.664;23.372;2023-04-12T02:13:01;93732.47;;;7.68;79.74
6136;BME280;24008;42.664;23.372;2023-04-12T02:15:30;93792.53;;;8.05;80.20
6136;BME280;24008;42.664;23.372;2023-04-12T02:17:57;93748.81;;;7.83;80.08
6136;BME280;24008;42.664;23.372;2023-04-12T02:20:25;93777.53;;;8.02;79.97
6136;BME280;24008;42.664;23.372;2023-04-12T02:22:52;93753.25;;;7.81;79.69
6136;BME280;24008;42.664;23.372;2023-04-12T02:25:20;93780.22;;;8.00;80.46
6136;BME280;24008;42.664;23.372;2023-04-12T02:27:47;93775.28;;;7.99;79.94
6136;BME280;24008;42.664;23.372;2023-04-12T02:30:14;93706.63;;;7.55;80.06
6136;BME280;24008;42.664;23.372;2023-04-12T02:32:42;93741.41;;;7.72;80.49
6136;BME280;24008;42.664;23.372;2023-04-12T02:35:10;93781.69;;;8.03;80.40
6136;BME280;24008;42.664;23.372;2023-04-12T02:37:37;93787.72;;;8.02;79.89
6136;BME280;24008;42.664;23.372;2023-04-12T02:40:05;93749.91;;;7.81;80.50
6136;BME280;24008;42.664;23.372;2023-04-12T02:42:34;93782.94;;;7.99;80.03
6136;BME280;24008;42.664;23.372;2023-04-12T02:45:01;93723.19;;;7.59;80.36
6136;BME280;24008;42.664;23.372;2023-04-12T02:47:28;93775.75;;;7.94;80.05
6136;BME280;24008;42.664;23.372;2023-04-12T02:49:56;93773.66;;;7.89;80.44
6136;BME280;24008;42.664;23.372;2023-04-12T02:52:23;93711.81;;;7.45;80.27
6136;BME280;24008;42.664;23.372;2023-04-12T02:54:50;93775.53;;;7.87;80.82
6136;BME280;24008;42.664;23.372;2023-04-12T02:57:17;93688.63;;;7.31;80.74
6136;BME280;24008;42.664;23.372;2023-04-12T02:59:46;93756.69;;;7.72;80.42
6136;BME280;24008;42.664;23.372;2023-04-12T03:02:13;93774.25;;;7.83;80.32
6136;BME280;24008;42.664;23.372;2023-04-12T03:04:40;93773.44;;;7.83;80.58
6136;BME280;24008;42.664;23.372;2023-04-12T03:07:12;93774.38;;;7.82;80.70
6136;BME280;24008;42.664;23.372;2023-04-12T03:09:39;93777.72;;;7.82;80.98
6136;BME280;24008;42.664;23.372;2023-04-12T03:12:07;93734.50;;;7.65;80.81
6136;BME280;24008;42.664;23.372;2023-04-12T03:14:33;93769.00;;;7.85;80.97
6136;BME280;24008;42.664;23.372;2023-04-12T03:17:00;93744.59;;;7.74;81.31
6136;BME280;24008;42.664;23.372;2023-04-12T03:19:27;93770.81;;;7.92;81.43
6136;BME280;24008;42.664;23.372;2023-04-12T03:21:57;93771.47;;;7.94;81.67
6136;BME280;24008;42.664;23.372;2023-04-12T03:24:25;93775.44;;;7.97;82.23
6136;BME280;24008;42.664;23.372;2023-04-12T03:26:55;93747.88;;;7.84;82.85
6136;BME280;24008;42.664;23.372;2023-04-12T03:29:22;93795.59;;;8.08;83.06
6136;BME280;24008;42.664;23.372;2023-04-12T03:31:49;93782.38;;;8.13;83.69
6136;BME280;24008;42.664;23.372;2023-04-12T03:34:16;93786.25;;;8.17;83.49
6136;BME280;24008;42.664;23.372;2023-04-12T03:36:42;93782.75;;;8.18;83.60
6136;BME280;24008;42.664;23.372;2023-04-12T03:39:09;93777.38;;;8.21;83.81
6136;BME280;24008;42.664;23.372;2023-04-12T03:41:37;93793.91;;;8.25;84.15
6136;BME280;24008;42.664;23.372;2023-04-12T03:44:04;93717.69;;;7.89;84.23
6136;BME280;24008;42.664;23.372;2023-04-12T03:46:32;93787.34;;;8.32;83.86
6136;BME280;24008;42.664;23.372;2023-04-12T03:48:59;93702.41;;;7.89;83.93
6136;BME280;24008;42.664;23.372;2023-04-12T03:51:25;93730.38;;;8.07;nan
6136;BME280;24008;42.664;23.372;2023-04-12T03:53:54;93760.31;;;8.21;82.50
6136;BME280;24008;42.664;23.372;2023-04-12T03:56:21;93744.91;;;8.23;82.32
6136;BME280;24008;42.664;23.372;2023-04-12T03:58:50;93792.97;;;8.44;82.31
6136;BME280;24008;42.664;23.372;2023-04-12T04:01:16;93782.78;;;8.44;81.56
6136;BME280;24008;42.664;23.372;2023-04-12T04:03:43;93790.25;;;8.45;81.42
6136;BME280;24008;42.664;23.372;2023-04-12T04:06:10;93786.75;;;8.46;81.74
6136;BME280;24008;42.664;23.372;2023-04-12T04:08:37;93614.97;;;7.39;80.62
6136;BME280;24008;42.664;23.372;2023-04-12T04:11:04;93768.72;;;8.32;80.54
6136;BME280;24008;42.664;23.372;2023-04-12T04:13:31;93799.56;;;8.54;80.24
6136;BME280;24008;42.664;23.372;2023-04-12T04:16:02;93772.75;;;8.42;80.78
6136;BME280;24008;42.664;23.372;2023-04-12T04:18:31;93785.25;;;8.61;79.94
6136;BME280;24008;42.664;23.372;2023-04-12T04:21:00;93804.81;;;8.61;79.15
6136;BME280;24008;42.664;23.372;2023-04-12T04:23:27;93710.44;;;8.03;79.23
6136;BME280;24008;42.664;23.372;2023-04-12T04:25:55;93793.78;;;8.44;79.16
6136;BME280;24008;42.664;23.372;2023-04-12T04:28:21;93822.34;;;8.64;78.94
6136;BME280;24008;42.664;23.372;2023-04-12T04:30:49;93803.47;;;8.49;79.06
6136;BME280;24008;42.664;23.372;2023-04-12T04:33:21;93837.19;;;8.69;79.48
6136;BME280;24008;42.664;23.372;2023-04-12T04:35:48;93828.59;;;8.70;79.13
6136;BME280;24008;42.664;23.372;2023-04-12T04:38:16;93793.59;;;8.46;79.14
6136;BME280;24008;42.664;23.372;2023-04-12T04:40:44;93826.25;;;8.76;78.51
6136;BME280;24008;42.664;23.372;2023-04-12T04:43:12;93775.09;;;8.36;78.43
6136;BME280;24008;42.664;23.372;2023-04-12T04:45:42;93833.69;;;8.70;78.56
6136;BME280;24008;42.664;23.372;2023-04-12T04:48:13;93817.81;;;8.50;78.15
6136;BME280;24008;42.664;23.372;2023-04-12T04:50:42;93660.34;;;7.51;78.07
6136;BME280;24008;42.664;23.372;2023-04-12T04:53:09;93846.09;;;8.64;78.18
6136;BME280;24008;42.664;23.372;2023-04-12T04:55:36;93848.47;;;8.66;77.81
6136;BME280;24008;42.664;23.372;2023-04-12T04:58:03;93843.38;;;8.66;77.39
6136;BME280;24008;42.664;23.372;2023-04-12T05:00:30;93853.09;;;8.71;77.87
6136;BME280;24008;42.664;23.372;2023-04-12T05:03:00;93859.66;;;8.73;77.76
6136;BME280;24008;42.664;23.372;2023-04-12T05:05:27;93823.28;;;8.55;77.00
6136;BME280;24008;42.664;23.372;2023-04-12T05:07:56;93832.53;;;8.64;76.57
6136;BME280;24008;42.664;23.372;2023-04-12T05:10:23;93830.66;;;8.66;76.55
6136;BME280;24008;42.664;23.372;2023-04-12T05:12:49;93867.53;;;8.88;75.96
6136;BME280;24008;42.664;23.372;2023-04-12T05:15:18;93833.69;;;8.70;75.09
6136;BME280;24008;42.664;23.372;2023-04-12T05:17:45;93863.75;;;8.92;75.04
6136;BME280;24008;42.664;23.372;2023-04-12T05:20:12;93867.25;;;8.91;75.14
6136;BME280;24008;42.664;23.372;2023-04-12T05:22:38;93775.22;;;8.34;74.99
6136;BME280;24008;42.664;23.372;2023-04-12T05:25:08;93892.41;;;8.94;73.94
6136;BME280;24008;42.664;23.372;2023-04-12T05:27:35;93867.28;;;8.99;73.83
6136;BME280;24008;42.664;23.372;2023-04-12T05:30:02;93870.81;;;9.06;73.03
6136;BME280;24008;42.664;23.372;2023-04-12T05:32:28;93761.13;;;8.40;72.12
6136;BME280;24008;42.664;23.372;2023-04-12T05:34:55;93877.22;;;9.18;70.56
6136;BME280;24008;42.664;23.372;2023-04-12T05:37:22;93804.09;;;8.69;69.85
6136;BME280;24008;42.664;23.372;2023-04-12T05:39:49;93715.63;;;8.19;69.41
6136;BME280;24008;42.664;23.372;2023-04-12T05:42:17;93884.28;;;9.24;69.12
6136;BME280;24008;42.664;23.372;2023-04-12T05:44:44;93880.13;;;9.23;68.76
6136;BME280;24008;42.664;23.372;2023-04-12T05:47:13;93889.38;;;9.24;68.62
6136;BME280;24008;42.664;23.372;2023-04-12T05:49:40;93885.09;;;9.25;69.38
6136;BME280;24008;42.664;23.372;2023-04-12T05:52:06;93882.53;;;9.25;68.44
6136;BME280;24008;42.664;23.372;2023-04-12T05:54:33;93859.84;;;9.06;67.61
6136;BME280;24008;42.664;23.372;2023-04-12T05:57:00;93887.66;;;9.33;67.58
6136;BME280;24008;42.664;23.372;2023-04-12T05:59:28;93867.22;;;9.17;67.36
6136;BME280;24008;42.664;23.372;2023-04-12T06:01:55;93777.56;;;8.53;67.11
6136;BME280;24008;42.664;23.372;2023-04-12T06:04:22;93892.75;;;9.33;66.80
6136;BME280;24008;42.664;23.372;2023-04-12T06:06:49;93897.72;;;9.34;66.99
6136;BME280;24008;42.664;23.372;2023-04-12T06:09:15;93897.06;;;9.32;65.85
6136;BME280;24008;42.664;23.372;2023-04-12T06:11:42;93902.47;;;9.29;65.17
6136;BME280;24008;42.664;23.372;2023-04-12T06:14:09;93898.34;;;9.28;64.83
6136;BME280;24008;42.664;23.372;2023-04-12T06:16:37;93909.75;;;9.16;65.36
6136;BME280;24008;42.664;23.372;2023-04-12T06:19:04;93902.84;;;9.09;65.21
6136;BME280;24008;42.664;23.372;2023-04-12T06:21:31;93917.81;;;9.03;65.78
6136;BME280;24008;42.664;23.372;2023-04-12T06:23:57;93923.22;;;9.09;66.58
6136;BME280;24008;42.664;23.372;2023-04-12T06:26:24;93923.38;;;9.07;66.49
6136;BME280;24008;42.664;23.372;2023-04-12T06:28:51;93899.50;;;8.82;67.19
6136;BME280;24008;42.664;23.372;2023-04-12T06:31:18;93915.06;;;8.97;67.60
6136;BME280;24008;42.664;23.372;2023-04-12T06:33:46;93835.75;;;8.40;69.12
6136;BME280;24008;42.664;23.372;2023-04-12T06:36:14;93921.84;;;8.88;70.34
6136;BME280;24008;42.664;23.372;2023-04-12T06:38:41;93922.00;;;8.87;70.94
6136;BME280;24008;42.664;23.372;2023-04-12T06:41:08;93877.69;;;8.54;70.76
6136;BME280;24008;42.664;23.372;2023-04-12T06:43:35;93876.25;;;8.51;70.17
6136;BME280;24008;42.664;23.372;2023-04-12T06:46:03;93878.53;;;8.62;71.25
6136;BME280;24008;42.664;23.372;2023-04-12T06:48:29;93881.78;;;8.73;70.37
6136;BME280;24008;42.664;23.372;2023-04-12T06:50:57;93903.91;;;8.98;69.70
6136;BME280;24008;42.664;23.372;2023-04-12T06:53:24;93902.41;;;9.13;69.02
6136;BME280;24008;42.664;23.372;2023-04-12T06:55:51;93902.78;;;9.26;68.25
6136;BME280;24008;42.664;23.372;2023-04-12T06:58:18;93894.72;;;9.39;67.47
6136;BME280;24008;42.664;23.372;2023-04-12T07:00:44;93891.81;;;9.42;66.97
6136;BME280;24008;42.664;23.372;2023-04-12T07:03:11;93886.47;;;9.53;65.34
6136;BME280;24008;42.664;23.372;2023-04-12T07:05:38;93850.91;;;9.60;64.63
6136;BME280;24008;42.664;23.372;2023-04-12T07:08:06;93865.06;;;10.29;63.53
6136;BME280;24008;42.664;23.372;2023-04-12T07:10:33;93861.44;;;11.03;60.27
6136;BME280;24008;42.664;23.372;2023-04-12T07:13:01;93843.97;;;12.07;57.20
6136;BME280;24008;42.664;23.372;2023-04-12T07:15:31;93822.66;;;13.26;56.06
6136;BME280;24008;42.664;23.372;2023-04-12T07:17:58;93878.56;;;15.16;50.47
6136;BME280;24008;42.664;23.372;2023-04-12T07:20:25;93870.81;;;15.91;46.42
6136;BME280;24008;42.664;23.372;2023-04-12T07:22:51;93858.63;;;16.39;44.78
6136;BME280;24008;42.664;23.372;2023-04-12T07:25:20;93865.97;;;17.08;44.23
6136;BME280;24008;42.664;23.372;2023-04-12T07:27:46;93846.59;;;17.44;42.96
6136;BME280;24008;42.664;23.372;2023-04-12T07:30:13;93862.63;;;17.72;41.84
6136;BME280;24008;42.664;23.372;2023-04-12T07:32:40;93763.81;;;16.41;41.59
6136;BME280;24008;42.664;23.372;2023-04-12T07:35:07;93794.34;;;16.05;42.65
6136;BME280;24008;42.664;23.372;2023-04-12T07:37:34;93877.16;;;15.89;42.95
6136;BME280;24008;42.664;23.372;2023-04-12T07:40:01;93872.00;;;15.89;43.79
6136;BME280;24008;42.664;23.372;2023-04-12T07:42:29;93804.31;;;15.60;43.88
6136;BME280;24008;42.664;23.372;2023-04-12T07:44:56;93778.91;;;14.96;43.68
6136;BME280;24008;42.664;23.372;2023-04-12T07:47:23;93766.13;;;14.19;45.05
6136;BME280;24008;42.664;23.372;2023-04-12T07:49:49;93872.75;;;14.30;46.38
6136;BME280;24008;42.664;23.372;2023-04-12T07:52:16;93881.03;;;13.89;47.89
6136;BME280;24008;42.664;23.372;2023-04-12T07:54:43;93875.03;;;14.39;48.07
6136;BME280;24008;42.664;23.372;2023-04-12T07:57:10;93851.44;;;15.13;44.97
6136;BME280;24008;42.664;23.372;2023-04-12T07:59:38;93812.25;;;14.49;43.93
6136;BME280;24008;42.664;23.372;2023-04-12T08:02:05;93753.84;;;13.51;44.54
6136;BME280;24008;42.664;23.372;2023-04-12T08:04:32;93851.63;;;13.92;44.14
6136;BME280;24008;42.664;23.372;2023-04-12T08:06:59;93850.94;;;13.62;45.39
6136;BME280;24008;42.664;23.372;2023-04-12T08:09:26;93795.34;;;13.04;46.40
6136;BME280;24008;42.664;23.372;2023-04-12T08:11:52;93793.91;;;12.86;47.04
6136;BME280;24008;42.664;23.372;2023-04-12T08:14:20;93845.03;;;13.32;45.66
6136;BME280;24008;42.664;23.372;2023-04-12T08:16:48;93792.13;;;12.72;45.89
6136;BME280;24008;42.664;23.372;2023-04-12T08:19:19;93842.00;;;12.84;47.26
6136;BME280;24008;42.664;23.372;2023-04-12T08:21:45;93731.97;;;12.01;48.48
6136;BME280;24008;42.664;23.372;2023-04-12T08:24:12;93798.75;;;12.52;47.95
6136;BME280;24008;42.664;23.372;2023-04-12T08:26:39;93867.75;;;13.06;44.61
6136;BME280;24008;42.664;23.372;2023-04-12T08:29:06;93797.38;;;13.80;42.98
6136;BME280;24008;42.664;23.372;2023-04-12T08:31:33;93765.38;;;14.04;40.67
6136;BME280;24008;42.664;23.372;2023-04-12T08:34:01;93848.84;;;14.29;39.96
6136;BME280;24008;42.664;23.372;2023-04-12T08:36:28;93845.91;;;14.54;40.38
6136;BME280;24008;42.664;23.372;2023-04-12T08:38:57;93856.31;;;15.36;39.02
6136;BME280;24008;42.664;23.372;2023-04-12T08:41:24;93728.50;;;14.74;39.37
6136;BME280;24008;42.664;23.372;2023-04-12T08:43:51;93850.25;;;16.31;38.04
6136;BME280;24008;42.664;23.372;2023-04-12T08:46:20;93780.81;;;16.55;36.29
6136;BME280;24008;42.664;23.372;2023-04-12T08:48:49;93852.13;;;17.54;35.46
6136;BME280;24008;42.664;23.372;2023-04-12T08:51:20;93666.28;;;16.89;33.36
6136;BME280;24008;42.664;23.372;2023-04-12T08:53:47;93842.06;;;17.33;33.22
6136;BME280;24008;42.664;23.372;2023-04-12T08:56:15;93826.47;;;16.29;34.40
6136;BME280;24008;42.664;23.372;2023-04-12T08:58:44;93797.69;;;16.32;34.32
6136;BME280;24008;42.664;23.372;2023-04-12T09:01:14;93826.59;;;17.26;34.69
6136;BME280;24008;42.664;23.372;2023-04-12T09:03:41;93821.28;;;18.10;33.25
6136;BME280;24008;42.664;23.372;2023-04-12T09:06:09;93829.91;;;19.03;32.19
6136;BME280;24008;42.664;23.372;2023-04-12T09:08:49;93815.44;;;19.32;31.17
6136;BME280;24008;42.664;23.372;2023-04-12T09:11:23;93823.94;;;19.21;30.56
6136;BME280;24008;42.664;23.372;2023-04-12T09:13:51;93829.69;;;19.05;31.28
6136;BME280;24008;42.664;23.372;2023-04-12T09:16:33;93782.66;;;18.65;30.43
6136;BME280;24008;42.664;23.372;2023-04-12T09:18:59;93642.22;;;17.65;30.56
6136;BME280;24008;42.664;23.372;2023-04-12T09:21:27;93807.91;;;19.31;30.51
6136;BME280;24008;42.664;23.372;2023-04-12T09:24:03;93811.78;;;19.76;29.87
6136;BME280;24008;42.664;23.372;2023-04-12T09:26:33;93730.97;;;19.50;29.40
6136;BME280;24008;42.664;23.372;2023-04-12T09:29:00;93780.84;;;19.63;29.40
6136;BME280;24008;42.664;23.372;2023-04-12T09:31:27;93809.97;;;19.77;28.95
6136;BME280;24008;42.664;23.372;2023-04-12T09:34:04;93773.28;;;18.89;29.31
6136;BME280;24008;42.664;23.372;2023-04-12T09:36:36;93813.84;;;18.20;29.97
6136;BME280;24008;42.664;23.372;2023-04-12T09:39:05;93817.38;;;17.50;30.50
6136;BME280;24008;42.664;23.372;2023-04-12T09:41:32;93814.84;;;17.37;31.65
6136;BME280;24008;42.664;23.372;2023-04-12T09:44:00;93795.91;;;17.94;31.26
6136;BME280;24008;42.664;23.372;2023-04-12T09:46:27;93793.91;;;18.52;29.14
6136;BME280;24008;42.664;23.372;2023-04-12T09:48:54;93760.19;;;18.84;29.08
6136;BME280;24008;42.664;23.372;2023-04-12T09:51:24;93771.94;;;19.04;28.69
6136;BME280;24008;42.664;23.372;2023-04-12T09:53:53;93789.97;;;19.11;28.25
6136;BME280;24008;42.664;23.372;2023-04-12T09:56:23;93770.56;;;19.02;28.41
6136;BME280;24008;42.664;23.372;2023-04-12T09:58:51;93769.59;;;18.04;29.99
6136;BME280;24008;42.664;23.372;2023-04-12T10:01:19;93675.66;;;16.57;30.59
6136;BME280;24008;42.664;23.372;2023-04-12T10:03:47;93710.66;;;16.01;33.57
6136;BME280;24008;42.664;23.372;2023-04-12T10:06:14;93703.06;;;16.52;32.00
6136;BME280;24008;42.664;23.372;2023-04-12T10:08:43;93729.69;;;17.17;33.00
6136;BME280;24008;42.664;23.372;2023-04-12T10:11:10;93720.28;;;17.74;30.75
6136;BME280;24008;42.664;23.372;2023-04-12T10:13:39;93747.09;;;18.79;28.37
6136;BME280;24008;42.664;23.372;2023-04-12T10:16:08;93713.75;;;19.07;25.81
6136;BME280;24008;42.664;23.372;2023-04-12T10:18:35;93748.69;;;19.53;26.21
6136;BME280;24008;42.664;23.372;2023-04-12T10:21:03;93719.19;;;19.47;24.90
6136;BME280;24008;42.664;23.372;2023-04-12T10:23:31;93737.31;;;19.95;25.75
6136;BME280;24008;42.664;23.372;2023-04-12T10:25:59;93741.00;;;19.58;23.65
6136;BME280;24008;42.664;23.372;2023-04-12T10:28:28;93604.31;;;18.63;25.87
6136;BME280;24008;42.664;23.372;2023-04-12T10:30:57;93733.53;;;19.68;23.23
6136;BME280;24008;42.664;23.372;2023-04-12T10:33:25;93739.81;;;19.42;25.22
6136;BME280;24008;42.664;23.372;2023-04-12T10:35:57;93673.66;;;19.39;24.68
6136;BME280;24008;42.664;23.372;2023-04-12T10:38:25;93687.53;;;19.15;24.98
6136;BME280;24008;42.664;23.372;2023-04-12T10:41:15;93693.03;;;19.07;24.71
6136;BME280;24008;42.664;23.372;2023-04-12T10:43:42;93712.00;;;19.19;26.16
6136;BME280;24008;42.664;23.372;2023-04-12T10:46:47;93676.06;;;18.93;25.26
6136;BME280;24008;42.664;23.372;2023-04-12T10:49:15;93717.03;;;18.78;24.38
6136;BME280;24008;42.664;23.372;2023-04-12T10:52:10;93712.78;;;18.40;24.44
6136;BME280;24008;42.664;23.372;2023-04-12T10:54:38;93671.41;;;18.40;25.00
6136;BME280;24008;42.664;23.372;2023-04-12T10:57:05;93681.19;;;18.56;25.54
6136;BME280;24008;42.664;23.372;2023-04-12T10:59:51;93505.13;;;17.10;25.13
6136;BME280;24008;42.664;23.372;2023-04-12T11:02:21;93713.13;;;18.00;25.08
6136;BME280;24008;42.664;23.372;2023-04-12T11:05:05;93703.63;;;17.94;25.78
6136;BME280;24008;42.664;23.372;2023-04-12T11:07:39;93619.13;;;17.07;25.60
6136;BME280;24008;42.664;23.372;2023-04-12T11:10:12;93656.25;;;17.13;25.97
6136;BME280;24008;42.664;23.372;2023-04-12T11:12:40;93711.78;;;16.71;25.61
6136;BME280;24008;42.664;23.372;2023-04-12T11:15:11;93599.28;;;15.59;26.85
6136;BME280;24008;42.664;23.372;2023-04-12T11:17:39;93680.91;;;15.85;26.46
6136;BME280;24008;42.664;23.372;2023-04-12T11:20:10;93663.81;;;15.31;27.64
6136;BME280;24008;42.664;23.372;2023-04-12T11:22:37;93691.72;;;15.34;28.24
6136;BME280;24008;42.664;23.372;2023-04-12T11:25:05;93713.31;;;15.46;28.23
6136;BME280;24008;42.664;23.372;2023-04-12T11:27:32;93664.13;;;14.95;29.12
6136;BME280;24008;42.664;23.372;2023-04-12T11:30:00;93608.00;;;14.64;29.21
6136;BME280;24008;42.664;23.372;2023-04-12T11:32:28;93711.56;;;15.47;29.85
6136;BME280;24008;42.664;23.372;2023-04-12T11:34:57;93697.56;;;15.56;28.36
6136;BME280;24008;42.664;23.372;2023-04-12T11:37:24;93693.91;;;15.37;28.57
6136;BME280;24008;42.664;23.372;2023-04-12T11:39:54;93707.78;;;15.43;30.67
6136;BME280;24008;42.664;23.372;2023-04-12T11:42:22;93692.34;;;15.49;29.23
6136;BME280;24008;42.664;23.372;2023-04-12T11:44:50;93587.81;;;14.61;28.47
6136;BME280;24008;42.664;23.372;2023-04-12T11:47:19;93699.81;;;15.18;28.90
6136;BME280;24008;42.664;23.372;2023-04-12T11:49:47;93637.50;;;14.75;29.07
6136;BME280;24008;42.664;23.372;2023-04-12T11:52:17;93621.91;;;14.35;28.10
6136;BME280;24008;42.664;23.372;2023-04-12T11:54:45;93704.25;;;14.83;28.51
6136;BME280;24008;42.664;23.372;2023-04-12T11:57:14;93709.59;;;14.88;29.28
6136;BME280;24008;42.664;23.372;2023-04-12T11:59:45;93719.13;;;15.01;29.50
6136;BME280;24008;42.664;23.372;2023-04-12T12:02:13;93554.25;;;14.28;29.60
6136;BME280;24008;42.664;23.372;2023-04-12T12:04:41;93683.91;;;14.95;28.56
6136;BME280;24008;42.664;23.372;2023-04-12T12:07:10;93709.81;;;14.93;29.47
6136;BME280;24008;42.664;23.372;2023-04-12T12:09:39;93711.56;;;14.86;30.29
6136;BME280;24008;42.664;23.372;2023-04-12T12:12:10;93706.31;;;14.66;29.82
6136;BME280;24008;42.664;23.372;2023-04-12T12:14:37;93709.88;;;14.65;30.08
6136;BME280;24008;42.664;23.372;2023-04-12T12:17:09;93700.81;;;14.69;31.12
6136;BME280;24008;42.664;23.372;2023-04-12T12:19:37;93697.66;;;14.74;30.11
6136;BME280;24008;42.664;23.372;2023-04-12T12:22:15;93696.41;;;14.63;29.75
6136;BME280;24008;42.664;23.372;2023-04-12T12:24:49;93699.16;;;14.62;30.38
6136;BME280;24008;42.664;23.372;2023-04-12T12:27:18;93696.44;;;14.35;29.89
6136;BME280;24008;42.664;23.372;2023-04-12T12:29:49;93640.63;;;13.95;30.72
6136;BME280;24008;42.664;23.372;2023-04-12T12:32:18;93700.38;;;14.31;30.62
6136;BME280;24008;42.664;23.372;2023-04-12T12:34:50;93684.63;;;14.13;30.53
6136;BME280;24008;42.664;23.372;2023-04-12T12:37:19;93564.91;;;13.56;30.53
6136;BME280;24008;42.664;23.372;2023-04-12T12:40:01;93676.31;;;14.11;30.64
6136;BME280;24008;42.664;23.372;2023-04-12T12:42:32;93701.88;;;14.19;30.13
6136;BME280;24008;42.664;23.372;2023-04-12T12:45:00;93671.72;;;14.00;31.13
6136;BME280;24008;42.664;23.372;2023-04-12T12:47:28;93701.03;;;14.40;31.04
6136;BME280;24008;42.664;23.372;2023-04-12T12:49:55;93708.63;;;14.48;30.69
6136;BME280;24008;42.664;23.372;2023-04-12T12:52:22;93712.81;;;14.56;30.71
6136;BME280;24008;42.664;23.372;2023-04-12T12:54:49;93706.22;;;14.47;31.14
6136;BME280;24008;42.664;23.372;2023-04-12T12:57:17;93707.22;;;14.46;30.59
6136;BME280;24008;42.664;23.372;2023-04-12T12:59:44;93666.50;;;14.21;30.02
6136;BME280;24008;42.664;23.372;2023-04-12T13:02:11;93693.44;;;14.32;30.03
6136;BME280;24008;42.664;23.372;2023-04-12T13:04:39;93680.56;;;13.97;32.40
6136;BME280;24008;42.664;23.372;2023-04-12T13:07:06;93688.13;;;14.05;31.33
6136;BME280;24008;42.664;23.372;2023-04-12T13:09:33;93705.16;;;14.13;31.28
6136;BME280;24008;42.664;23.372;2023-04-12T13:12:00;93669.00;;;13.59;30.77
6136;BME280;24008;42.664;23.372;2023-04-12T13:14:29;93716.91;;;13.94;32.14
6136;BME280;24008;42.664;23.372;2023-04-12T13:16:56;93678.53;;;13.86;31.42